createdAt,value
2023-08-12T00:02:58.575Z,3.70
2023-08-12T00:08:02.292Z,2.90
2023-08-12T00:13:05.659Z,3.00
2023-08-12T00:18:09.435Z,3.10
2023-08-12T00:23:13.867Z,3.10
2023-08-12T00:28:17.178Z,3.30
2023-08-12T00:33:20.473Z,3.50
2023-08-12T00:38:23.875Z,3.50
2023-08-12T00:43:27.205Z,3.10
2023-08-12T00:48:30.675Z,2.90
2023-08-12T00:53:36.128Z,2.80
2023-08-12T00:58:40.825Z,2.50
2023-08-12T01:03:44.398Z,3.00
2023-08-12T01:08:47.706Z,2.80
2023-08-12T01:13:59.358Z,3.20
2023-08-12T01:19:06.592Z,3.30
2023-08-12T01:24:10.026Z,3.20
2023-08-12T01:29:13.851Z,3.40
2023-08-12T01:34:29.584Z,3.00
2023-08-12T01:39:35.519Z,2.90
2023-08-12T01:44:39.038Z,3.00
2023-08-12T01:49:42.273Z,2.70
2023-08-12T01:54:45.665Z,2.60
2023-08-12T01:59:48.913Z,2.80
2023-08-12T02:04:52.445Z,2.80
2023-08-12T02:09:55.704Z,2.60
2023-08-12T02:14:59.026Z,2.40
2023-08-12T02:20:02.352Z,2.90
2023-08-12T02:25:06.292Z,3.20
2023-08-12T02:30:09.990Z,2.90
2023-08-12T02:35:13.417Z,2.90
2023-08-12T02:40:16.956Z,3.30
2023-08-12T02:45:20.181Z,2.60
2023-08-12T02:50:23.541Z,2.20
2023-08-12T02:55:27.068Z,2.70
2023-08-12T03:00:30.874Z,2.50
2023-08-12T03:05:34.183Z,2.30
2023-08-12T03:10:38.909Z,2.30
2023-08-12T03:15:43.447Z,2.30
2023-08-12T03:20:46.852Z,2.50
2023-08-12T03:25:50.136Z,3.30
2023-08-12T03:30:54.711Z,2.50
2023-08-12T03:35:58.475Z,2.80
2023-08-12T03:41:02.002Z,3.00
2023-08-12T03:46:05.443Z,3.00
2023-08-12T03:51:08.799Z,2.80
2023-08-12T03:56:16.384Z,3.20
2023-08-12T04:01:19.807Z,2.60
2023-08-12T04:06:23.355Z,2.80
2023-08-12T04:11:26.933Z,2.70
2023-08-12T04:16:30.284Z,3.00
2023-08-12T04:21:33.545Z,2.80
2023-08-12T04:26:36.834Z,2.80
2023-08-12T04:31:41.778Z,2.60
2023-08-12T04:36:45.535Z,2.40
2023-08-12T04:41:48.902Z,2.40
2023-08-12T04:46:52.253Z,2.70
2023-08-12T04:51:55.618Z,3.00
2023-08-12T04:56:59.119Z,2.80
2023-08-12T05:02:05.314Z,2.80
2023-08-12T05:07:08.927Z,3.30
2023-08-12T05:12:13.490Z,3.00
2023-08-12T05:17:17.155Z,3.80
2023-08-12T05:22:20.525Z,3.70
2023-08-12T05:27:23.885Z,3.40
2023-08-12T05:32:27.235Z,3.80
2023-08-12T05:37:30.525Z,3.50
2023-08-12T05:42:33.824Z,3.40
2023-08-12T05:47:37.170Z,3.30
2023-08-12T05:52:41.566Z,3.60
2023-08-12T05:57:44.943Z,2.50
2023-08-12T06:02:51.447Z,2.60
2023-08-12T06:07:56.244Z,2.30
2023-08-12T06:12:59.468Z,2.20
2023-08-12T06:18:03.552Z,2.30
2023-08-12T06:23:06.844Z,2.20
2023-08-12T06:28:11.557Z,1.80
2023-08-12T06:33:15.623Z,2.30
2023-08-12T06:38:18.982Z,3.40
2023-08-12T06:43:23.451Z,3.80
2023-08-12T06:48:27.011Z,3.90
2023-08-12T06:53:30.604Z,4.20
2023-08-12T06:58:34.585Z,4.80
2023-08-12T07:03:38.347Z,4.30
2023-08-12T07:08:43.088Z,4.30
2023-08-12T07:13:47.835Z,4.10
2023-08-12T07:18:51.297Z,4.00
2023-08-12T07:24:04.110Z,3.70
2023-08-12T07:29:08.299Z,3.20
2023-08-12T07:34:14.666Z,3.20
2023-08-12T07:39:19.766Z,2.30
2023-08-12T07:44:26.593Z,2.20
2023-08-12T07:49:29.922Z,2.20
2023-08-12T07:54:33.786Z,2.30
2023-08-12T07:59:37.922Z,2.00
2023-08-12T08:04:44.848Z,2.30
2023-08-12T08:09:49.689Z,1.70
2023-08-12T08:14:58.162Z,2.00
2023-08-12T08:20:04.602Z,3.80
2023-08-12T08:25:10.500Z,2.90
2023-08-12T08:30:14.722Z,2.10
2023-08-12T08:35:20.679Z,2.20
2023-08-12T08:40:24.873Z,2.40
2023-08-12T08:45:36.196Z,2.00
2023-08-12T08:50:44.295Z,1.70
2023-08-12T08:55:49.102Z,1.80
2023-08-12T09:00:53.333Z,1.90
2023-08-12T09:06:00.566Z,2.10
2023-08-12T09:11:04.424Z,2.20
2023-08-12T09:16:08.009Z,2.10
2023-08-12T09:21:12.291Z,2.00
2023-08-12T09:26:17.835Z,1.60
2023-08-12T09:31:29.956Z,2.20
2023-08-12T09:36:33.664Z,1.80
2023-08-12T09:41:37.162Z,1.90
2023-08-12T09:46:40.594Z,2.20
2023-08-12T09:51:45.145Z,1.90
2023-08-12T09:56:50.773Z,2.20
2023-08-12T10:01:57.649Z,2.20
2023-08-12T10:07:06.143Z,2.00
2023-08-12T10:12:17.705Z,1.80
2023-08-12T10:17:37.337Z,1.90
2023-08-12T10:22:51.140Z,1.90
2023-08-12T10:27:54.482Z,1.40
2023-08-12T10:33:00.627Z,1.90
2023-08-12T10:38:07.508Z,1.80
2023-08-12T10:43:14.942Z,1.50
2023-08-12T10:48:20.680Z,1.70
2023-08-12T10:53:31.116Z,1.80
2023-08-12T10:58:48.780Z,1.50
2023-08-12T11:03:52.257Z,1.40
2023-08-12T11:09:05.650Z,2.00
2023-08-12T11:14:16.903Z,2.60
2023-08-12T11:19:21.160Z,2.10
2023-08-12T11:24:24.654Z,1.80
2023-08-12T11:29:27.932Z,1.90
2023-08-12T11:34:34.949Z,2.00
2023-08-12T11:39:39.950Z,1.90
2023-08-12T11:44:43.569Z,2.00
2023-08-12T11:49:47.513Z,1.90
2023-08-12T11:54:51.860Z,1.70
2023-08-12T12:00:01.274Z,1.80
2023-08-12T12:05:12.569Z,1.70
2023-08-12T12:10:34.943Z,2.20
2023-08-12T12:15:42.641Z,1.90
2023-08-12T12:21:00.842Z,1.70
2023-08-12T12:26:05.249Z,1.80
2023-08-12T12:31:09.536Z,1.90
2023-08-12T12:36:13.622Z,1.60
2023-08-12T12:41:17.362Z,1.80
2023-08-12T12:46:40.155Z,2.10
2023-08-12T12:51:45.384Z,1.90
2023-08-12T12:56:51.067Z,1.90
2023-08-12T13:01:59.222Z,1.90
2023-08-12T13:07:02.894Z,1.80
2023-08-12T13:12:08.012Z,1.70
2023-08-12T13:17:25.850Z,1.70
2023-08-12T13:22:30.937Z,1.90
2023-08-12T13:27:34.889Z,2.10
2023-08-12T13:32:39.526Z,2.20
2023-08-12T13:37:46.341Z,1.90
2023-08-12T13:42:54.570Z,2.10
2023-08-12T13:47:59.632Z,2.10
2023-08-12T13:53:08.206Z,1.90
2023-08-12T13:58:30.585Z,2.10
2023-08-12T14:03:35.114Z,1.90
2023-08-12T14:08:41.964Z,1.70
2023-08-12T14:13:45.410Z,1.80
2023-08-12T14:18:54.146Z,1.80
2023-08-12T14:23:58.362Z,2.00
2023-08-12T14:29:03.137Z,1.80
2023-08-12T14:34:07.681Z,2.20
2023-08-12T14:39:11.123Z,2.20
2023-08-12T14:44:17.242Z,1.90
2023-08-12T14:49:21.922Z,2.10
2023-08-12T14:54:25.438Z,2.00
2023-08-12T14:59:29.774Z,2.00
2023-08-12T15:04:34.305Z,1.80
2023-08-12T15:09:37.722Z,1.60
2023-08-12T15:14:41.141Z,1.90
2023-08-12T15:19:44.513Z,1.90
2023-08-12T15:24:47.813Z,1.90
2023-08-12T15:29:51.186Z,1.90
2023-08-12T15:34:55.326Z,2.00
2023-08-12T15:39:59.748Z,2.00
2023-08-12T15:45:08.846Z,2.20
2023-08-12T15:50:15.199Z,2.10
2023-08-12T15:55:19.222Z,2.10
2023-08-12T16:00:22.576Z,2.20
2023-08-12T16:05:26.341Z,2.30
2023-08-12T16:10:31.245Z,2.00
2023-08-12T16:15:35.150Z,1.80
2023-08-12T16:20:41.746Z,1.80
2023-08-12T16:25:45.804Z,2.00
2023-08-12T16:30:49.812Z,2.20
2023-08-12T16:35:53.032Z,2.30
2023-08-12T16:40:56.342Z,1.90
2023-08-12T16:45:59.818Z,2.90
2023-08-12T16:51:03.180Z,2.10
2023-08-12T16:56:06.572Z,2.30
2023-08-12T17:01:09.944Z,2.70
2023-08-12T17:06:13.683Z,2.60
2023-08-12T17:11:17.656Z,2.80
2023-08-12T17:16:21.471Z,2.60
2023-08-12T17:21:25.273Z,2.40
2023-08-12T17:26:28.591Z,3.30
2023-08-12T17:31:32.445Z,2.60
2023-08-12T17:36:35.761Z,2.60
2023-08-12T17:41:39.279Z,2.30
2023-08-12T17:46:43.800Z,2.60
2023-08-12T17:51:47.531Z,3.40
2023-08-12T17:56:50.968Z,3.30
2023-08-12T18:01:54.318Z,3.10
2023-08-12T18:06:57.747Z,2.90
2023-08-12T18:12:01.048Z,2.80
2023-08-12T18:17:04.572Z,2.90
2023-08-12T18:22:08.117Z,2.80
2023-08-12T18:27:11.967Z,2.50
2023-08-12T18:32:15.631Z,3.10
2023-08-12T18:37:20.563Z,4.20
2023-08-12T18:42:23.970Z,3.60
2023-08-12T18:47:27.445Z,3.50
2023-08-12T18:52:30.850Z,3.50
2023-08-12T18:57:34.154Z,3.10
2023-08-12T19:02:37.573Z,2.90
2023-08-12T19:07:41.340Z,2.90
2023-08-12T19:12:44.721Z,3.30
2023-08-12T19:17:48.090Z,3.40
2023-08-12T19:22:51.517Z,3.60
2023-08-12T19:27:54.874Z,3.30
2023-08-12T19:32:58.335Z,2.50
2023-08-12T19:38:02.835Z,2.70
2023-08-12T19:43:06.973Z,2.50
2023-08-12T19:48:12.486Z,2.50
2023-08-12T19:53:16.146Z,2.60
2023-08-12T19:58:21.489Z,2.50
2023-08-12T20:03:25.656Z,2.50
2023-08-12T20:08:34.101Z,2.20
2023-08-12T20:13:37.840Z,2.10
2023-08-12T20:18:42.647Z,2.50
2023-08-12T20:23:48.445Z,2.60
2023-08-12T20:28:59.315Z,3.10
2023-08-12T20:34:03.060Z,2.90
2023-08-12T20:39:07.482Z,2.60
2023-08-12T20:44:10.785Z,2.60
2023-08-12T20:49:17.488Z,2.40
2023-08-12T20:54:20.819Z,2.10
2023-08-12T20:59:24.312Z,2.40
2023-08-12T21:04:27.680Z,2.60
2023-08-12T21:09:31.239Z,2.30
2023-08-12T21:14:34.533Z,2.20
2023-08-12T21:19:38.050Z,2.30
2023-08-12T21:24:41.359Z,2.50
2023-08-12T21:29:45.002Z,2.70
2023-08-12T21:34:48.313Z,2.50
2023-08-12T21:39:51.686Z,2.50
2023-08-12T21:44:55.270Z,2.60
2023-08-12T21:49:59.055Z,2.70
2023-08-12T21:55:02.436Z,2.40
2023-08-12T22:00:08.966Z,2.50
2023-08-12T22:05:12.567Z,2.30
2023-08-12T22:10:15.940Z,2.20
2023-08-12T22:15:19.307Z,2.30
2023-08-12T22:20:22.948Z,2.00
2023-08-12T22:25:26.374Z,2.20
2023-08-12T22:30:29.685Z,2.30
2023-08-12T22:35:33.031Z,1.90
2023-08-12T22:40:36.461Z,2.30
2023-08-12T22:45:45.067Z,2.20
2023-08-12T22:50:48.489Z,2.30
2023-08-12T22:55:51.751Z,2.20
2023-08-12T23:00:55.068Z,2.20
2023-08-12T23:05:59.137Z,2.10
2023-08-12T23:11:02.486Z,1.90
2023-08-12T23:16:05.922Z,1.90
2023-08-12T23:21:09.167Z,2.50
2023-08-12T23:26:12.432Z,2.40
2023-08-12T23:31:15.852Z,2.40
2023-08-12T23:36:19.750Z,2.40
2023-08-12T23:41:23.234Z,2.60
2023-08-12T23:46:26.543Z,2.40
2023-08-12T23:51:29.828Z,2.40
2023-08-12T23:56:33.053Z,2.80
